Time;durP1;ratioP1;P1;durP2;ratioP2;P2;SDS_P1;SDS_P2;PMS_P1;PMS_P2;Temp;Humidity;BMP_temperature;BMP_pressure;BME280_temperature;BME280_humidity;BME280_pressure;Samples;Min_cycle;Max_cycle;Signal;HPM_P1;HPM_P2
2023/01/17 00:00:14;;;;;;;5.72;5.32;;;2.30;99.90;;;;;;5042816;28;20222;-72
2023/01/17 00:02:41;;;;;;;4.88;4.57;;;2.40;99.90;;;;;;5026026;28;21051;-72
2023/01/17 00:10:41;;;;;;;6.00;5.60;;;2.30;99.90;;;;;;5032443;28;20225;-72
2023/01/17 00:13:08;;;;;;;5.45;5.05;;;2.20;99.90;;;;;;5043082;28;20257;-72
2023/01/17 00:15:38;;;;;;;5.65;5.25;;;2.20;99.90;;;;;;5043559;28;20223;-72
2023/01/17 00:18:06;;;;;;;5.22;4.93;;;2.20;99.90;;;;;;5046016;28;20195;-72
2023/01/17 00:26:10;;;;;;;6.28;5.78;;;2.20;99.90;;;;;;5043716;28;20483;-72
2023/01/17 01:35:49;;;;;;;10.85;9.85;;;1.90;99.90;;;;;;5043873;28;20684;-72
2023/01/17 01:38:16;;;;;;;11.20;10.30;;;1.90;99.90;;;;;;5047552;28;20235;-73
2023/01/17 01:40:46;;;;;;;10.15;9.35;;;1.90;99.90;;;;;;5045177;28;20320;-72
2023/01/17 01:43:16;;;;;;;11.75;10.75;;;1.90;99.90;;;;;;5049072;28;20241;-72
2023/01/17 01:45:48;;;;;;;11.60;10.57;;;1.90;99.90;;;;;;5028143;28;20734;-72
2023/01/17 01:48:26;;;;;;;14.35;12.98;;;1.90;99.90;;;;;;5045314;28;20195;-73
2023/01/17 01:50:53;;;;;;;13.52;12.32;;;1.80;99.90;;;;;;5046458;28;20218;-73
2023/01/17 01:53:22;;;;;;;11.82;10.73;;;1.70;99.90;;;;;;5047617;28;20664;-73
2023/01/17 01:55:51;;;;;;;13.38;12.18;;;1.60;99.90;;;;;;5047043;28;20215;-73
2023/01/17 01:58:23;;;;;;;13.43;12.23;;;1.70;99.90;;;;;;5030221;28;20257;-73
2023/01/17 02:00:51;;;;;;;12.55;11.45;;;1.70;99.90;;;;;;5046625;28;20566;-73
2023/01/17 02:03:24;;;;;;;11.38;10.38;;;1.80;99.90;;;;;;5046528;28;20195;-73
2023/01/17 02:05:52;;;;;;;11.05;10.05;;;1.80;99.90;;;;;;5046173;28;20680;-73
2023/01/17 02:08:23;;;;;;;11.00;10.07;;;1.80;99.90;;;;;;5045687;28;20695;-72
2023/01/17 02:10:50;;;;;;;9.55;8.70;;;1.90;99.90;;;;;;5043443;28;20742;-73
2023/01/17 02:13:21;;;;;;;9.82;9.02;;;1.90;99.90;;;;;;5046129;28;20568;-73
2023/01/17 02:15:57;;;;;;;10.63;9.77;;;1.90;99.90;;;;;;5029245;28;20276;-72
2023/01/17 02:18:33;;;;;;;10.95;10.02;;;1.90;99.90;;;;;;5044948;28;20691;-72
2023/01/17 02:21:20;;;;;;;10.93;10.02;;;1.80;99.90;;;;;;5044667;28;21010;-72
2023/01/17 02:24:16;;;;;;;10.70;9.80;;;1.80;99.90;;;;;;5047750;28;20699;-72
2023/01/17 02:27:03;;;;;;;10.98;10.07;;;1.80;99.90;;;;;;5043726;28;20231;-72
2023/01/17 02:30:01;;;;;;;11.88;10.88;;;1.90;99.90;;;;;;5044530;28;20334;-72
2023/01/17 02:32:40;;;;;;;11.70;10.70;;;1.90;99.90;;;;;;5043675;28;20268;-71
2023/01/17 02:35:13;;;;;;;9.93;9.07;;;1.90;99.90;;;;;;5042693;28;20215;-72
2023/01/17 02:37:48;;;;;;;10.27;9.43;;;1.90;99.90;;;;;;5045480;28;20324;-73
2023/01/17 02:40:23;;;;;;;10.70;9.85;;;1.90;99.90;;;;;;5045619;28;20218;-73
2023/01/17 02:42:55;;;;;;;10.73;9.82;;;1.90;99.90;;;;;;5048062;28;20293;-72
2023/01/17 02:45:23;;;;;;;11.23;10.25;;;1.90;99.90;;;;;;5046967;28;20345;-72
2023/01/17 02:47:51;;;;;;;10.93;10.02;;;1.90;99.90;;;;;;5045646;28;20215;-72
2023/01/17 02:50:22;;;;;;;11.07;10.18;;;1.90;99.90;;;;;;5046034;28;20305;-72
2023/01/17 02:53:14;;;;;;;11.43;10.43;;;1.90;99.90;;;;;;5043520;28;20206;-73
2023/01/17 02:55:53;;;;;;;11.05;10.15;;;1.90;99.90;;;;;;5046671;28;20770;-72
2023/01/17 02:58:32;;;;;;;10.50;9.60;;;1.90;99.90;;;;;;5042299;28;20194;-72
2023/01/17 03:01:09;;;;;;;11.88;10.88;;;1.90;99.90;;;;;;5026020;28;20699;-72
2023/01/17 03:03:50;;;;;;;11.57;10.57;;;1.90;99.90;;;;;;5027754;28;20624;-72
2023/01/17 03:06:22;;;;;;;11.55;10.57;;;1.90;99.90;;;;;;5022797;28;20229;-73
2023/01/17 03:08:51;;;;;;;11.02;10.13;;;1.90;99.90;;;;;;5044523;28;20206;-73
2023/01/17 03:11:18;;;;;;;10.85;9.85;;;1.90;99.90;;;;;;5045194;28;20703;-73
2023/01/17 03:13:46;;;;;;;10.95;9.95;;;1.80;99.90;;;;;;5042253;28;20206;-73
2023/01/17 03:16:17;;;;;;;11.40;10.45;;;1.80;99.90;;;;;;5041222;28;20287;-73
2023/01/17 03:18:46;;;;;;;10.10;9.30;;;1.80;99.90;;;;;;5043712;28;20199;-73
2023/01/17 03:21:13;;;;;;;10.52;9.63;;;1.80;99.90;;;;;;5044971;28;20229;-73
2023/01/17 03:23:40;;;;;;;10.50;9.65;;;1.80;99.90;;;;;;5044624;28;20687;-72
2023/01/17 03:26:07;;;;;;;9.70;9.00;;;1.80;99.90;;;;;;5043287;28;20750;-73
2023/01/17 03:28:35;;;;;;;9.43;8.70;;;1.80;99.90;;;;;;5028502;28;20248;-73
2023/01/17 03:31:02;;;;;;;10.35;9.52;;;1.80;99.90;;;;;;5045145;28;20242;-74
2023/01/17 03:33:29;;;;;;;10.85;9.95;;;1.80;99.90;;;;;;5028757;28;20202;-73
2023/01/17 03:35:58;;;;;;;9.75;8.95;;;1.90;99.90;;;;;;5042640;28;20218;-74
2023/01/17 03:38:25;;;;;;;9.95;9.15;;;1.90;99.90;;;;;;5046249;28;20260;-73
2023/01/17 03:40:53;;;;;;;10.07;9.18;;;1.90;99.90;;;;;;5039198;28;20301;-73
2023/01/17 03:43:20;;;;;;;8.80;8.10;;;1.90;99.90;;;;;;5045792;28;20199;-73
2023/01/17 03:45:50;;;;;;;10.65;9.77;;;1.90;99.90;;;;;;5042001;28;20222;-73
2023/01/17 03:48:17;;;;;;;11.65;10.75;;;1.90;99.90;;;;;;5044314;28;20234;-73
2023/01/17 03:50:45;;;;;;;11.57;10.57;;;1.90;99.90;;;;;;5042691;28;20219;-73
2023/01/17 03:53:13;;;;;;;10.35;9.45;;;1.90;99.90;;;;;;5039857;28;20194;-73
2023/01/17 03:55:41;;;;;;;10.95;9.95;;;1.90;99.90;;;;;;5043094;28;20230;-73
2023/01/17 03:58:08;;;;;;;10.57;9.68;;;1.90;99.90;;;;;;5045119;28;20199;-73
2023/01/17 04:00:35;;;;;;;9.98;9.13;;;2.00;99.90;;;;;;5044528;28;20231;-73
2023/01/17 04:03:03;;;;;;;9.40;8.60;;;2.00;99.90;;;;;;5029467;28;20663;-72
2023/01/17 04:05:30;;;;;;;10.00;9.20;;;2.10;99.90;;;;;;5043504;28;20265;-72
2023/01/17 04:07:57;;;;;;;9.68;8.90;;;2.00;99.90;;;;;;5047003;28;20222;-73
2023/01/17 04:10:26;;;;;;;11.50;10.50;;;2.00;99.90;;;;;;5043687;28;20223;-73
2023/01/17 04:12:53;;;;;;;10.43;9.52;;;2.00;99.90;;;;;;5042700;28;20217;-72
2023/01/17 04:15:20;;;;;;;9.85;9.05;;;1.90;99.90;;;;;;5023166;28;20215;-73
2023/01/17 04:17:48;;;;;;;15.00;13.65;;;1.90;99.90;;;;;;5044325;28;20644;-73
2023/01/17 04:20:21;;;;;;;12.13;11.05;;;1.80;99.90;;;;;;5040177;28;20265;-73
2023/01/17 04:22:48;;;;;;;11.63;10.63;;;1.80;99.90;;;;;;5044023;28;20577;-73
2023/01/17 04:25:16;;;;;;;12.07;11.07;;;1.80;99.90;;;;;;5034617;28;20230;-72
2023/01/17 04:27:44;;;;;;;13.05;11.85;;;1.90;99.90;;;;;;5047774;28;20210;-72
2023/01/17 04:30:12;;;;;;;11.55;10.57;;;1.90;99.90;;;;;;5042431;28;20262;-72
2023/01/17 04:32:40;;;;;;;13.32;12.10;;;1.90;99.90;;;;;;5045022;28;20199;-72
2023/01/17 04:35:08;;;;;;;13.20;11.98;;;1.90;99.90;;;;;;5044195;28;20229;-72
2023/01/17 04:37:35;;;;;;;11.75;10.75;;;1.90;99.90;;;;;;5041887;28;20731;-73
2023/01/17 04:40:03;;;;;;;12.07;11.07;;;1.90;99.90;;;;;;5036600;28;20704;-72
2023/01/17 04:42:30;;;;;;;12.30;11.30;;;1.90;99.90;;;;;;5047342;28;20314;-73
2023/01/17 04:44:59;;;;;;;12.05;11.02;;;1.90;99.90;;;;;;5045435;28;20223;-73
2023/01/17 04:47:26;;;;;;;11.75;10.75;;;2.00;99.90;;;;;;5038272;28;20246;-73
2023/01/17 04:49:54;;;;;;;11.38;10.45;;;2.00;99.90;;;;;;5044551;28;20272;-72
2023/01/17 04:52:21;;;;;;;11.73;10.73;;;2.00;99.90;;;;;;5044972;28;20707;-72
2023/01/17 04:54:49;;;;;;;10.80;9.90;;;1.90;99.90;;;;;;5044396;28;20277;-72
2023/01/17 04:57:16;;;;;;;12.20;11.15;;;1.90;99.90;;;;;;5025526;28;20222;-72
2023/01/17 04:59:43;;;;;;;13.23;12.02;;;1.80;99.90;;;;;;5042901;28;20594;-72
2023/01/17 05:02:12;;;;;;;13.27;12.13;;;1.70;99.90;;;;;;5043936;28;20253;-73
2023/01/17 05:04:40;;;;;;;13.82;12.60;;;1.60;99.90;;;;;;5029689;28;20230;-72
2023/01/17 05:07:07;;;;;;;14.00;12.60;;;1.50;99.90;;;;;;5044303;28;20230;-72
2023/01/17 05:09:35;;;;;;;14.00;12.75;;;1.50;99.90;;;;;;5042168;28;20754;-72
2023/01/17 05:12:02;;;;;;;15.00;13.60;;;1.50;99.90;;;;;;5045353;28;20195;-72
2023/01/17 05:14:30;;;;;;;16.15;14.57;;;1.50;99.90;;;;;;5042965;28;20199;-72
2023/01/17 05:16:58;;;;;;;15.07;13.68;;;1.60;99.90;;;;;;5045105;28;20218;-72
2023/01/17 05:19:27;;;;;;;12.90;11.70;;;1.60;99.90;;;;;;5034883;28;20606;-72
2023/01/17 05:21:54;;;;;;;13.20;11.90;;;1.70;99.90;;;;;;5045622;28;20416;-72
2023/01/17 05:24:21;;;;;;;12.88;11.68;;;1.70;99.90;;;;;;5038979;28;20649;-73
2023/01/17 05:26:53;;;;;;;12.68;11.57;;;1.80;99.90;;;;;;5042389;28;20225;-72
2023/01/17 05:29:21;;;;;;;12.80;11.68;;;1.80;99.90;;;;;;5042714;28;20560;-71
2023/01/17 05:31:48;;;;;;;10.75;9.85;;;1.90;99.90;;;;;;5039425;28;20241;-72
2023/01/17 05:34:16;;;;;;;10.98;9.98;;;1.90;99.90;;;;;;5042735;28;20203;-73
2023/01/17 05:36:44;;;;;;;13.98;12.55;;;2.00;99.90;;;;;;5024789;28;20246;-72
2023/01/17 05:39:12;;;;;;;25.65;14.10;;;1.90;99.90;;;;;;5043342;28;20834;-72
2023/01/17 05:41:39;;;;;;;17.27;15.57;;;1.90;99.90;;;;;;5043906;28;20257;-71
2023/01/17 05:44:06;;;;;;;15.38;13.88;;;1.80;99.90;;;;;;5043190;28;20207;-72
2023/01/17 05:46:33;;;;;;;14.60;13.20;;;1.70;99.90;;;;;;5039087;28;20223;-72
2023/01/17 05:49:00;;;;;;;13.32;12.02;;;1.70;99.90;;;;;;5044651;28;20260;-72
2023/01/17 05:51:28;;;;;;;13.88;12.48;;;1.70;99.90;;;;;;5044856;28;20234;-72
2023/01/17 05:53:57;;;;;;;14.82;13.43;;;1.70;99.90;;;;;;5025704;28;20318;-73
2023/01/17 05:56:24;;;;;;;17.80;16.05;;;1.80;99.90;;;;;;5043347;28;20286;-72
2023/01/17 05:58:51;;;;;;;15.90;14.40;;;1.80;99.90;;;;;;5042999;28;20202;-72
2023/01/17 06:01:18;;;;;;;15.60;14.10;;;1.80;99.90;;;;;;5046109;28;20215;-72
2023/01/17 06:03:46;;;;;;;14.57;13.20;;;1.80;99.90;;;;;;5027139;28;20203;-72
2023/01/17 06:06:13;;;;;;;12.45;11.25;;;1.90;99.90;;;;;;5047284;28;20217;-72
2023/01/17 06:08:40;;;;;;;12.70;11.52;;;1.90;99.90;;;;;;5049627;28;20199;-72
2023/01/17 06:11:09;;;;;;;11.82;10.80;;;1.90;99.90;;;;;;5037136;28;20273;-72
2023/01/17 06:13:36;;;;;;;12.75;11.65;;;1.90;99.90;;;;;;5030816;28;20203;-72
2023/01/17 06:16:04;;;;;;;12.80;11.70;;;1.90;99.90;;;;;;5045103;28;20818;-72
2023/01/17 06:18:32;;;;;;;11.27;10.27;;;1.90;99.90;;;;;;5042567;28;20261;-72
2023/01/17 06:20:59;;;;;;;11.40;10.40;;;1.90;99.90;;;;;;5040932;28;20276;-71
2023/01/17 06:23:27;;;;;;;10.98;10.07;;;1.90;99.90;;;;;;5046157;28;20662;-72
2023/01/17 06:25:54;;;;;;;12.02;10.93;;;2.00;99.90;;;;;;5044541;28;20318;-72
2023/01/17 06:28:23;;;;;;;10.35;9.45;;;2.00;99.90;;;;;;5047631;28;20676;-71
2023/01/17 06:30:51;;;;;;;10.43;9.43;;;2.10;99.90;;;;;;5046418;28;20218;-71
2023/01/17 06:33:18;;;;;;;11.27;10.38;;;2.10;99.90;;;;;;5044957;28;20253;-71
2023/01/17 06:35:49;;;;;;;10.60;9.70;;;2.10;99.90;;;;;;5043915;28;20297;-71
2023/01/17 06:38:16;;;;;;;11.63;10.63;;;2.10;99.90;;;;;;5042060;28;20257;-72
2023/01/17 06:40:43;;;;;;;13.20;12.00;;;2.10;99.90;;;;;;5044207;28;20703;-72
2023/01/17 06:43:10;;;;;;;12.90;11.80;;;2.00;99.90;;;;;;5026952;28;20782;-71
2023/01/17 06:45:40;;;;;;;13.95;12.65;;;2.00;99.90;;;;;;5041684;28;20280;-72
2023/01/17 06:48:07;;;;;;;14.93;13.50;;;1.90;99.90;;;;;;5043588;28;20218;-73
2023/01/17 06:50:35;;;;;;;13.77;12.57;;;1.90;99.90;;;;;;5046464;28;20226;-73
2023/01/17 06:53:06;;;;;;;13.00;11.88;;;1.90;99.90;;;;;;5046874;28;20253;-72
2023/01/17 06:55:34;;;;;;;12.38;11.27;;;1.90;99.90;;;;;;5043994;28;20219;-72
2023/01/17 06:58:02;;;;;;;12.60;11.60;;;1.90;99.90;;;;;;5037208;28;20226;-72
2023/01/17 07:00:33;;;;;;;13.13;12.02;;;1.90;99.90;;;;;;5042685;28;20771;-72
2023/01/17 07:03:02;;;;;;;13.35;12.18;;;1.80;99.90;;;;;;5037925;28;20234;-72
2023/01/17 07:05:31;;;;;;;14.02;12.70;;;1.80;99.90;;;;;;5039873;28;20229;-72
2023/01/17 07:07:58;;;;;;;15.63;14.05;;;1.70;99.90;;;;;;5041774;28;20215;-72
2023/01/17 07:10:26;;;;;;;13.95;12.70;;;1.70;99.90;;;;;;5041075;28;20273;-72
2023/01/17 07:12:58;;;;;;;14.27;12.88;;;1.70;99.90;;;;;;5040280;28;20191;-72
2023/01/17 07:15:26;;;;;;;14.23;12.95;;;1.70;99.90;;;;;;5042792;28;20787;-72
2023/01/17 07:17:53;;;;;;;15.45;14.00;;;1.70;99.90;;;;;;5039210;28;20223;-71
2023/01/17 07:20:22;;;;;;;16.25;14.75;;;1.80;99.90;;;;;;5041253;28;20219;-72
2023/01/17 07:22:49;;;;;;;17.05;15.35;;;1.80;99.90;;;;;;5039629;28;20198;-72
2023/01/17 07:25:17;;;;;;;17.00;15.40;;;1.80;99.90;;;;;;5039127;28;20230;-73
2023/01/17 07:27:45;;;;;;;17.02;15.32;;;1.80;99.90;;;;;;5041558;28;20223;-72
2023/01/17 07:30:13;;;;;;;16.40;14.80;;;1.80;99.90;;;;;;5038253;28;20963;-72
2023/01/17 07:32:41;;;;;;;17.33;15.70;;;1.80;99.90;;;;;;5038274;28;20195;-74
2023/01/17 07:35:09;;;;;;;17.75;15.95;;;1.80;99.90;;;;;;5039355;28;20223;-74
2023/01/17 07:37:38;;;;;;;16.58;14.98;;;1.90;99.90;;;;;;5020898;28;20241;-73
2023/01/17 07:40:06;;;;;;;15.68;14.18;;;1.90;99.90;;;;;;5040531;28;20302;-73
2023/01/17 07:42:34;;;;;;;15.45;14.05;;;1.90;99.90;;;;;;5038325;28;20852;-73
2023/01/17 07:45:01;;;;;;;17.15;15.45;;;2.00;99.90;;;;;;5039518;28;20215;-73
2023/01/17 07:47:28;;;;;;;18.23;16.42;;;2.00;99.90;;;;;;5039921;28;20578;-73
2023/01/17 07:49:55;;;;;;;17.55;15.88;;;2.00;99.90;;;;;;5037342;28;20219;-73
2023/01/17 07:52:23;;;;;;;16.05;14.55;;;2.00;99.90;;;;;;5041394;28;20202;-73
2023/01/17 07:54:52;;;;;;;16.70;15.07;;;2.00;99.90;;;;;;5041128;28;20230;-74
2023/01/17 07:57:19;;;;;;;20.48;17.85;;;2.00;99.90;;;;;;5041122;28;20269;-73
2023/01/17 07:59:49;;;;;;;18.33;16.52;;;2.00;99.90;;;;;;5033019;28;20226;-73
2023/01/17 08:02:19;;;;;;;17.02;15.32;;;2.00;99.90;;;;;;5025631;28;20194;-73
2023/01/17 08:04:46;;;;;;;18.13;16.33;;;2.00;99.90;;;;;;5032262;28;20724;-73
2023/01/17 08:07:14;;;;;;;18.05;16.25;;;2.00;99.90;;;;;;5036761;28;20274;-73
2023/01/17 08:09:41;;;;;;;17.70;15.95;;;2.10;99.90;;;;;;5018654;28;20218;-72
2023/01/17 08:12:11;;;;;;;17.55;15.85;;;2.10;99.90;;;;;;5039615;28;20882;-73
2023/01/17 08:14:38;;;;;;;17.15;15.45;;;2.20;99.90;;;;;;5044165;28;20226;-73
2023/01/17 08:17:05;;;;;;;16.88;15.18;;;2.20;99.90;;;;;;5042591;28;20236;-72
2023/01/17 08:19:33;;;;;;;18.02;16.27;;;2.20;99.90;;;;;;5041053;28;20301;-72
2023/01/17 08:22:00;;;;;;;18.10;16.30;;;2.30;99.90;;;;;;5038469;28;20195;-73
2023/01/17 08:24:27;;;;;;;18.25;16.45;;;2.30;99.90;;;;;;5041120;28;20203;-73
2023/01/17 08:26:55;;;;;;;22.15;19.85;;;2.30;99.90;;;;;;5039753;28;20219;-72
2023/01/17 08:29:24;;;;;;;58.72;23.08;;;2.40;99.90;;;;;;5040327;28;20199;-72
2023/01/17 08:31:52;;;;;;;68.85;23.70;;;2.30;99.90;;;;;;5038691;28;20226;-73
2023/01/17 08:34:21;;;;;;;21.00;18.90;;;2.30;99.90;;;;;;5042401;28;20219;-73
2023/01/17 08:36:48;;;;;;;19.98;17.98;;;2.30;99.90;;;;;;5023936;28;20227;-72
2023/01/17 08:39:15;;;;;;;20.13;18.13;;;2.30;99.90;;;;;;5040720;28;20199;-72
2023/01/17 08:41:42;;;;;;;29.27;21.77;;;2.40;99.90;;;;;;5038325;28;20199;-73
2023/01/17 08:44:10;;;;;;;21.73;19.55;;;2.40;99.90;;;;;;5041411;28;20708;-73
2023/01/17 08:46:40;;;;;;;19.92;17.92;;;2.30;99.90;;;;;;5022262;28;20238;-73
2023/01/17 08:49:08;;;;;;;23.33;20.98;;;2.30;99.90;;;;;;5039004;28;20202;-71
2023/01/17 08:51:35;;;;;;;22.00;19.60;;;2.20;99.90;;;;;;5037288;28;20222;-73
2023/01/17 08:54:02;;;;;;;29.13;16.73;;;2.10;99.90;;;;;;5023131;28;20609;-73
2023/01/17 08:56:30;;;;;;;20.20;18.17;;;2.10;99.90;;;;;;5044664;28;20230;-73
2023/01/17 08:58:57;;;;;;;19.20;17.30;;;2.10;99.90;;;;;;5039346;28;20195;-73
2023/01/17 09:01:24;;;;;;;24.33;21.77;;;2.10;99.90;;;;;;5041707;28;20700;-73
2023/01/17 09:03:53;;;;;;;18.98;16.98;;;2.20;99.90;;;;;;5022207;28;20203;-73
2023/01/17 09:06:20;;;;;;;17.88;16.15;;;2.20;99.90;;;;;;5039981;28;20781;-72
2023/01/17 09:08:48;;;;;;;21.23;19.02;;;2.20;99.90;;;;;;5038391;28;20199;-72
2023/01/17 09:11:17;;;;;;;18.80;16.88;;;2.30;99.90;;;;;;5036905;28;20260;-73
2023/01/17 09:13:44;;;;;;;19.67;17.67;;;2.30;99.90;;;;;;5040809;28;20203;-73
2023/01/17 09:16:12;;;;;;;65.03;19.80;;;2.30;99.90;;;;;;5039342;28;20238;-72
2023/01/17 09:18:42;;;;;;;66.07;21.98;;;2.20;99.90;;;;;;5033807;28;20221;-73
2023/01/17 09:21:12;;;;;;;24.40;16.98;;;2.20;99.90;;;;;;5040823;28;20319;-73
2023/01/17 09:23:40;;;;;;;95.28;20.85;;;2.10;99.90;;;;;;5044700;28;20199;-72
2023/01/17 09:26:07;;;;;;;19.02;17.13;;;2.10;99.90;;;;;;5046219;28;20227;-73
2023/01/17 09:28:39;;;;;;;21.48;16.52;;;2.00;99.90;;;;;;5025731;28;20206;-73
2023/01/17 09:31:08;;;;;;;18.65;16.80;;;2.00;99.90;;;;;;5044563;28;20647;-73
2023/01/17 09:33:35;;;;;;;19.05;17.08;;;2.00;99.90;;;;;;5039336;28;20305;-73
2023/01/17 09:36:04;;;;;;;17.50;15.80;;;2.00;99.90;;;;;;5043203;28;20219;-73
2023/01/17 09:38:33;;;;;;;18.05;16.15;;;2.10;99.90;;;;;;5042829;28;20736;-73
2023/01/17 09:41:02;;;;;;;17.05;15.35;;;2.10;99.90;;;;;;5043389;28;20230;-72
2023/01/17 09:43:36;;;;;;;17.70;15.95;;;2.10;99.90;;;;;;5041726;28;20194;-72
2023/01/17 09:46:04;;;;;;;16.67;14.93;;;2.20;99.90;;;;;;5042411;28;20215;-73
2023/01/17 09:48:37;;;;;;;15.82;14.25;;;2.30;99.90;;;;;;5042068;28;20200;-73
2023/01/17 09:51:09;;;;;;;15.38;13.77;;;2.40;99.90;;;;;;5043888;28;20219;-72
2023/01/17 09:53:42;;;;;;;15.63;14.05;;;2.50;99.90;;;;;;5045189;28;20256;-72
2023/01/17 09:56:14;;;;;;;16.70;15.02;;;2.60;99.90;;;;;;5044682;28;20218;-73
2023/01/17 09:58:47;;;;;;;14.10;12.70;;;2.60;99.90;;;;;;5039901;28;20199;-72
2023/01/17 10:01:24;;;;;;;14.15;12.82;;;2.60;99.90;;;;;;5041757;28;20223;-74
2023/01/17 10:04:09;;;;;;;13.65;12.40;;;2.60;99.90;;;;;;5043233;28;20207;-73
2023/01/17 10:07:02;;;;;;;12.43;11.32;;;2.70;99.90;;;;;;5042862;28;20645;-74
2023/01/17 10:09:49;;;;;;;12.68;11.57;;;2.70;99.90;;;;;;5040655;28;20207;-73
2023/01/17 10:12:24;;;;;;;13.35;12.15;;;2.70;99.90;;;;;;5042746;28;20691;-73
2023/01/17 10:15:35;;;;;;;13.25;12.05;;;2.80;99.90;;;;;;5042673;28;20226;-72
2023/01/17 10:18:19;;;;;;;15.05;13.65;;;2.70;99.90;;;;;;5041937;28;20238;-73
2023/01/17 10:20:51;;;;;;;30.35;15.93;;;2.70;99.90;;;;;;5040513;28;20219;-73
2023/01/17 10:23:42;;;;;;;97.32;18.75;;;2.70;99.90;;;;;;5042181;28;20641;-72
2023/01/17 10:26:14;;;;;;;19.30;17.30;;;2.70;99.90;;;;;;5043027;28;20230;-73
2023/01/17 10:28:47;;;;;;;18.52;16.70;;;2.60;99.90;;;;;;5039184;28;20201;-72
2023/01/17 10:31:20;;;;;;;19.65;17.30;;;2.60;99.90;;;;;;5023046;28;20215;-73
2023/01/17 10:33:51;;;;;;;17.92;16.23;;;2.60;99.90;;;;;;5042158;28;20264;-72
2023/01/17 10:36:23;;;;;;;17.88;15.98;;;2.60;99.90;;;;;;5043221;28;20756;-73
2023/01/17 10:38:55;;;;;;;17.40;15.60;;;2.60;99.90;;;;;;5039126;28;21922;-73
2023/01/17 10:41:29;;;;;;;17.92;15.95;;;2.60;99.90;;;;;;5023649;28;20269;-73
2023/01/17 10:44:04;;;;;;;19.67;17.65;;;2.50;99.90;;;;;;5043461;28;20201;-73
2023/01/17 10:46:39;;;;;;;17.92;16.13;;;2.50;99.90;;;;;;5041219;28;20729;-73
2023/01/17 10:49:15;;;;;;;19.58;17.48;;;2.60;99.90;;;;;;5039183;28;20203;-73
2023/01/17 10:51:59;;;;;;;18.98;17.23;;;2.70;99.90;;;;;;5022771;28;20227;-73
2023/01/17 10:54:48;;;;;;;18.05;16.25;;;2.70;99.90;;;;;;5041451;28;20199;-73
2023/01/17 10:57:21;;;;;;;20.13;18.00;;;2.80;99.90;;;;;;5024027;28;20306;-73
2023/01/17 10:59:49;;;;;;;19.23;17.35;;;2.90;99.90;;;;;;5040889;28;20231;-73
2023/01/17 11:02:21;;;;;;;18.00;16.15;;;3.00;99.90;;;;;;5041998;28;20652;-73
2023/01/17 11:04:53;;;;;;;18.85;16.95;;;2.90;99.90;;;;;;5042255;28;20218;-73
2023/01/17 11:07:22;;;;;;;16.50;14.90;;;2.90;99.90;;;;;;5043933;28;20230;-74
2023/01/17 11:09:51;;;;;;;16.70;15.18;;;2.90;99.90;;;;;;5044114;28;20268;-73
2023/01/17 11:12:26;;;;;;;17.58;15.93;;;2.90;99.90;;;;;;5042955;28;20241;-73
2023/01/17 11:15:04;;;;;;;22.42;20.23;;;3.00;99.90;;;;;;5040803;28;20214;-73
2023/01/17 11:17:32;;;;;;;21.88;19.77;;;3.00;99.90;;;;;;5041261;28;20222;-73
2023/01/17 11:20:18;;;;;;;25.42;22.92;;;2.90;99.90;;;;;;5041321;28;20227;-73
2023/01/17 11:23:00;;;;;;;22.48;20.27;;;2.70;99.90;;;;;;5043794;28;20649;-74
2023/01/17 11:25:31;;;;;;;20.23;18.20;;;2.60;99.90;;;;;;5021895;28;20309;-73
2023/01/17 11:28:06;;;;;;;18.25;16.45;;;2.60;99.90;;;;;;5034942;28;20229;-73
2023/01/17 11:30:34;;;;;;;17.58;15.80;;;2.50;99.90;;;;;;5041723;28;20218;-74
2023/01/17 11:33:04;;;;;;;15.95;14.43;;;2.50;99.90;;;;;;5040357;28;20207;-74
2023/01/17 11:35:34;;;;;;;14.07;12.82;;;2.50;99.90;;;;;;5042682;28;20284;-74
2023/01/17 11:38:10;;;;;;;13.50;12.40;;;2.50;99.90;;;;;;5036750;28;20231;-74
2023/01/17 11:40:40;;;;;;;14.68;13.38;;;2.50;99.90;;;;;;5042739;28;20218;-74
2023/01/17 11:43:31;;;;;;;13.88;12.50;;;2.50;99.90;;;;;;5039788;28;20412;-73
2023/01/17 11:46:14;;;;;;;14.65;13.30;;;2.50;99.90;;;;;;5036523;28;20235;-74
2023/01/17 11:48:41;;;;;;;14.52;13.13;;;2.60;99.90;;;;;;5041301;28;20812;-73
2023/01/17 11:51:22;;;;;;;14.73;13.43;;;2.60;99.90;;;;;;5039976;28;20227;-74
2023/01/17 11:53:50;;;;;;;15.60;14.15;;;2.70;99.90;;;;;;5023187;28;20195;-74
2023/01/17 11:56:33;;;;;;;13.65;12.35;;;2.70;99.90;;;;;;5036623;28;20820;-74
2023/01/17 11:59:28;;;;;;;14.50;13.20;;;2.80;99.90;;;;;;5041650;28;20256;-74
2023/01/17 12:02:30;;;;;;;16.17;14.68;;;2.80;99.90;;;;;;5037890;28;20724;-74
2023/01/17 12:05:09;;;;;;;17.85;16.05;;;2.80;99.90;;;;;;5008505;28;20731;-74
2023/01/17 12:07:42;;;;;;;17.70;16.10;;;2.80;99.90;;;;;;5033959;28;20313;-73
2023/01/17 12:10:16;;;;;;;16.55;15.05;;;2.70;99.90;;;;;;5039458;28;20215;-73
2023/01/17 12:15:53;;;;;;;18.63;16.73;;;2.60;99.90;;;;;;5034159;28;20221;-74
2023/01/17 12:18:41;;;;;;;16.17;14.55;;;2.60;99.90;;;;;;5040263;28;20202;-73
2023/01/17 12:21:25;;;;;;;16.20;14.60;;;2.50;99.90;;;;;;5038371;28;20223;-73
2023/01/17 12:24:04;;;;;;;15.32;13.93;;;2.50;99.90;;;;;;5035930;28;20746;-73
2023/01/17 12:26:37;;;;;;;15.38;13.80;;;2.50;99.90;;;;;;5038412;28;20888;-73
2023/01/17 12:29:41;;;;;;;15.27;13.77;;;2.50;99.90;;;;;;5037957;28;20194;-73
2023/01/17 12:32:41;;;;;;;14.85;13.48;;;2.50;99.90;;;;;;5037275;28;20310;-73
2023/01/17 12:35:14;;;;;;;14.63;13.32;;;2.60;99.90;;;;;;5021394;28;22444;-75
2023/01/17 12:37:44;;;;;;;14.18;12.82;;;2.50;99.90;;;;;;5035336;28;20227;-73
2023/01/17 12:40:21;;;;;;;15.00;13.70;;;2.50;99.90;;;;;;5038299;28;20221;-72
2023/01/17 12:42:53;;;;;;;14.18;12.88;;;2.50;99.90;;;;;;5039033;28;20207;-73
2023/01/17 12:45:25;;;;;;;14.50;13.10;;;2.40;99.90;;;;;;5036258;28;20804;-74
2023/01/17 12:48:01;;;;;;;15.32;13.93;;;2.30;99.90;;;;;;5036990;28;20218;-74
2023/01/17 12:50:34;;;;;;;16.58;14.93;;;2.30;99.90;;;;;;5018001;28;20274;-75
2023/01/17 12:53:10;;;;;;;14.95;13.43;;;2.30;99.90;;;;;;5028627;28;20187;-73
2023/01/17 12:55:47;;;;;;;14.40;13.00;;;2.30;99.90;;;;;;5021751;28;20249;-74
2023/01/17 12:58:20;;;;;;;15.27;13.88;;;2.40;99.90;;;;;;5022235;28;20274;-74
2023/01/17 13:00:54;;;;;;;14.70;13.40;;;2.50;99.90;;;;;;5040125;28;20218;-74
2023/01/17 13:03:29;;;;;;;16.17;14.68;;;2.60;99.90;;;;;;5040018;28;20214;-74
2023/01/17 13:06:00;;;;;;;15.02;13.60;;;2.60;99.90;;;;;;5043590;28;20439;-74
2023/01/17 13:08:33;;;;;;;14.70;13.30;;;2.60;99.90;;;;;;5041240;28;20222;-73
2023/01/17 13:11:06;;;;;;;15.95;14.45;;;2.70;99.90;;;;;;5043496;28;20280;-73
2023/01/17 13:13:34;;;;;;;15.75;14.25;;;2.70;99.90;;;;;;5047111;28;20199;-74
2023/01/17 13:16:08;;;;;;;17.58;15.98;;;2.70;99.90;;;;;;5042928;28;20310;-74
2023/01/17 13:18:41;;;;;;;17.85;16.25;;;2.80;99.90;;;;;;5046850;28;20207;-74
2023/01/17 13:21:28;;;;;;;17.77;16.08;;;2.70;99.90;;;;;;5041800;28;20222;-74
2023/01/17 13:24:29;;;;;;;17.90;16.13;;;2.80;99.90;;;;;;5044883;28;20200;-74
2023/01/17 13:27:30;;;;;;;17.20;15.60;;;2.80;99.90;;;;;;5020063;28;20227;-74
2023/01/17 13:30:14;;;;;;;14.95;13.55;;;2.80;99.90;;;;;;5044689;28;20306;-74
2023/01/17 13:33:15;;;;;;;16.80;14.88;;;2.80;99.90;;;;;;5042319;28;20195;-72
2023/01/17 13:35:57;;;;;;;15.90;14.40;;;2.90;99.90;;;;;;5026561;28;20271;-74
2023/01/17 13:38:58;;;;;;;15.20;13.80;;;2.90;99.90;;;;;;5030245;28;20476;-74
2023/01/17 13:41:37;;;;;;;14.43;13.13;;;2.90;99.90;;;;;;5042126;28;20276;-73
2023/01/17 13:44:23;;;;;;;15.00;13.60;;;2.90;99.90;;;;;;5044071;28;20198;-74
2023/01/17 13:47:00;;;;;;;15.75;14.25;;;2.90;99.90;;;;;;5041280;28;20214;-73
2023/01/17 13:49:47;;;;;;;16.45;14.75;;;3.00;99.90;;;;;;5040477;28;20278;-73
2023/01/17 13:52:31;;;;;;;16.42;14.82;;;2.90;99.90;;;;;;5046261;28;20786;-74
2023/01/17 13:55:01;;;;;;;14.75;13.32;;;3.00;99.90;;;;;;5040774;28;20244;-74
2023/01/17 14:00:53;;;;;;;14.85;13.45;;;3.00;99.90;;;;;;5038787;28;20298;-73
2023/01/17 14:04:06;;;;;;;15.43;13.93;;;3.00;99.90;;;;;;5034221;28;20206;-76
2023/01/17 14:06:43;;;;;;;16.40;14.77;;;2.90;99.90;;;;;;5003925;28;20222;-75
2023/01/17 14:09:40;;;;;;;16.63;15.02;;;2.90;99.90;;;;;;5039956;28;20950;-74
2023/01/17 14:12:26;;;;;;;17.98;15.60;;;2.80;99.90;;;;;;5043245;28;20663;-75
2023/01/17 14:15:00;;;;;;;14.93;13.52;;;2.80;99.90;;;;;;5040593;28;20233;-72
2023/01/17 14:17:47;;;;;;;16.05;14.55;;;2.80;99.90;;;;;;5023810;28;20254;-73
2023/01/17 14:20:40;;;;;;;15.30;13.88;;;2.70;99.90;;;;;;5041066;28;20219;-74
2023/01/17 14:23:27;;;;;;;51.45;15.43;;;2.60;99.90;;;;;;5025780;28;20207;-74
2023/01/17 14:26:00;;;;;;;18.48;13.68;;;2.50;99.90;;;;;;5042780;28;20715;-73
2023/01/17 14:28:31;;;;;;;16.38;14.60;;;2.50;99.90;;;;;;5039465;28;20265;-74